Homeland, California
Current Conditions -  °F | °C
As of 12:35 AM on Monday 26 Jan 2015 (Local Time) from KF70 Reporting Station
Clear Clear  
Wind Chill: 59°   Ceiling: Unl
Heat Index: 59°   Visibility: 10mi
Dew Point: 34°   Wind: 3mph
Humidity: 39%   Direction: 350°N
Pressure: 30.06"   Gusts: NA
Location:  33.74°N, 117.11°W
Report Text: KF70 260835Z AUTO 35003KT 10SM CLR 15/01 A3006 RMK AO1
Loading
Personal Weather Stations






























Interactive Weather Map New forecast layout! Learn more

10-Day Weather Forecast

Advertisements
Track Severe Weather on mobile